首页
METAR-TAF:

METAR-TAF

机场 :

Rosecrans Memorial Airport

Saint Joseph, 密蘇里州, 美国

纬度: 39-46-05N, 经度: 094-54-33W, 海拔: 251米

当前天气观测

该预报发布于59分钟前的08:53 UTC
风速12节,风向
温度 0°C
湿度 80%
气压 1023 hPa
能見度: 16.1公里
阴天层高于1700英尺

METAR: KSTJ 220853Z AUTO 36012KT 10SM OVC017 00/M03 A3022 RMK AO2 SLP241 T00001033 53001

时间: 03:52 (09:52 UTC)

预报

该预报发布于4小时和31分钟前的05:21 UTC
预报有效从22日的 06点(UTC)到 23日的 06点(UTC)
风速8节,风向
能見度: 10公里
多云层高于3000英尺
多云层高于10000英尺
短暂存在
从 22日的 06点(UTC)到 22日的 09点(UTC)
散云层高于3000英尺
从 22日的 0900点(UTC)
风速8节,风向
能見度: 10公里
散云层高于3000英尺
多云层高于10000英尺
从 23日的 0200点(UTC)
风速5节,风向北转东北
能見度: 6.4公里
阴天层高于5000英尺
小雨, 雪
从 23日的 0400点(UTC)
风速5节,风向东北
能見度: 3.2公里
多云层高于2500英尺
阴天层高于5000英尺
小雪

TAF: KSTJ 220521Z 2206/2306 01008KT P6SM BKN030 BKN100 TEMPO 2206/2209 SCT030 FM220900 01008KT P6SM SCT030 BKN100 FM230200 02005KT 4SM -RASN OVC050 FM230400 04005KT 2SM -SN BKN025 OVC050

超过4000个机场的气象观测和天气预报(METAR&TAF报告)。

可查询的气象台以黄色和红色小点在地图上表示。

将鼠标移到小点上方,可查看气象台名称。

然后点击查看天气观测和预报。

如需切换地图:点击带黑十字的绿色按钮放大地图;点击带横线的绿色按钮缩小地图;或者点击绿色箭头查看邻近地区的地图。


METAR-TAF: